KMWA/MWA METAR and TAF weather

Enter ICAO airport designator
Station Type Date Time Source
KMWA METAR 2020/03/31 09:35 UTC NOAA

KMWA 310935Z AUTO 04004KT 10SM OVC110 10/07 A2997 RMK AO2 T00960065


Station Type Date Time Source
KMWA Decoded METAR 2020/03/31 09:35 UTC NOAA

Marion, Williamson County Regional Airport, IL, United States (KMWA) 37-45-01N 089-00-04W
Mar 31, 2020 - 05:35 AM EDT / 2020.03.31 0935 UTC
Wind: from the NE (040 degrees) at 5 MPH (4 KT):0
Visibility: 10 mile(s):0
Sky conditions: overcast
Temperature: 49.3 F (9.6 C)
Dew Point: 43.7 F (6.5 C)
Relative Humidity: 80%
Pressure (altimeter): 29.97 in. Hg (1014 hPa)
ob: KMWA 310935Z AUTO 04004KT 10SM OVC110 10/07 A2997 RMK AO2 T00960065
cycle: 9

Station Type Date Time Source
KMWA TAF UTC NOAA

Error!

Example: see airport list